Terminal Aerodrome Forecast
Issued by NWS

Home | Current Version | Previous Version | Graphics & Text | Print | Product List | Glossary On
Versions: 1 2 3 4 5 6 7 8 9 10 11 12 13 14 15 16 17 18 19 20 21 22 23 24 25 26 27 28 29 30 31 32 33 34 35 36
000
FTUS43 KLOT 292300
TAFORD
TAF
KORD 292338Z 3000/3106 32015G25KT P6SM OVC035
     FM300500 33015G25KT P6SM BKN025 OVC035
     FM300900 33013G19KT P6SM SCT020 BKN035
     FM301500 33009KT P6SM SCT025 SCT150
     FM302100 27006KT P6SM SCT025 BKN100=

USA.gov is the U.S. government's official web portal to all federal, state and local government web resources and services.